createdAt,value
2022-10-23T00:01:27.274Z,13.20
2022-10-23T00:04:03.381Z,13.28
2022-10-23T00:06:32.847Z,13.32
2022-10-23T00:09:00.741Z,13.28
2022-10-23T00:11:30.323Z,13.23
2022-10-23T00:14:00.918Z,13.16
2022-10-23T00:16:29.137Z,13.22
2022-10-23T00:18:56.506Z,13.27
2022-10-23T00:21:24.260Z,13.30
2022-10-23T00:23:51.599Z,13.19
2022-10-23T00:26:18.653Z,13.31
2022-10-23T00:28:48.198Z,13.30
2022-10-23T00:31:15.273Z,13.33
2022-10-23T00:33:43.085Z,13.28
2022-10-23T00:36:13.333Z,13.34
2022-10-23T00:38:43.558Z,13.33
2022-10-23T00:41:16.614Z,13.34
2022-10-23T00:44:00.242Z,13.26
2022-10-23T00:46:27.896Z,13.27
2022-10-23T00:48:55.487Z,13.28
2022-10-23T00:51:22.777Z,13.32
2022-10-23T00:54:01.427Z,13.24
2022-10-23T00:56:44.555Z,13.29
2022-10-23T00:59:12.207Z,13.25
2022-10-23T01:01:39.323Z,13.22
2022-10-23T01:04:07.933Z,13.30
2022-10-23T01:06:39.883Z,13.31
2022-10-23T01:09:27.297Z,13.16
2022-10-23T01:12:03.357Z,13.27
2022-10-23T01:15:15.667Z,13.34
2022-10-23T01:18:04.556Z,13.25
2022-10-23T01:21:00.827Z,13.26
2022-10-23T01:23:51.951Z,13.26
2022-10-23T01:26:35.955Z,13.40
2022-10-23T01:29:03.033Z,13.41
2022-10-23T01:31:36.253Z,13.16
2022-10-23T01:34:16.329Z,13.23
2022-10-23T01:36:48.992Z,13.34
2022-10-23T01:39:24.937Z,13.31
2022-10-23T01:42:34.232Z,13.38
2022-10-23T01:45:09.389Z,13.28
2022-10-23T01:47:44.231Z,13.18
2022-10-23T01:50:16.916Z,13.26
2022-10-23T01:52:47.187Z,13.18
2022-10-23T01:55:17.168Z,13.24
2022-10-23T01:57:46.140Z,13.25
2022-10-23T02:00:16.068Z,13.16
2022-10-23T02:02:54.094Z,13.21
2022-10-23T02:05:26.754Z,13.27
2022-10-23T02:07:55.431Z,13.29
2022-10-23T02:10:29.071Z,13.24
2022-10-23T02:13:19.500Z,13.14
2022-10-23T02:15:51.093Z,13.16
2022-10-23T02:18:42.064Z,13.18
2022-10-23T02:21:08.917Z,13.22
2022-10-23T02:23:59.915Z,13.06
2022-10-23T02:26:42.008Z,13.07
2022-10-23T02:29:25.395Z,13.07
2022-10-23T02:31:52.529Z,13.19
2022-10-23T02:34:19.891Z,13.12
2022-10-23T02:36:47.016Z,13.06
2022-10-23T02:39:14.179Z,13.14
2022-10-23T02:42:15.183Z,13.02
2022-10-23T02:45:04.613Z,13.01
2022-10-23T02:47:56.413Z,12.95
2022-10-23T02:50:52.264Z,12.84
2022-10-23T02:53:40.761Z,12.95
2022-10-23T02:56:23.207Z,13.06
2022-10-23T02:59:16.591Z,13.02
2022-10-23T03:01:53.684Z,12.98
2022-10-23T03:04:25.288Z,13.02
2022-10-23T03:06:53.230Z,13.04
2022-10-23T03:09:20.318Z,13.08
2022-10-23T03:11:47.282Z,13.10
2022-10-23T03:14:14.686Z,13.16
2022-10-23T03:16:41.603Z,13.00
2022-10-23T03:21:37.110Z,12.88
2022-10-23T03:24:08.260Z,12.83
2022-10-23T03:26:40.645Z,12.90
2022-10-23T03:29:07.610Z,12.75
2022-10-23T03:31:40.877Z,12.82
2022-10-23T03:34:11.344Z,12.81
2022-10-23T03:36:40.693Z,12.73
2022-10-23T03:39:08.891Z,12.61
2022-10-23T03:41:35.875Z,12.59
2022-10-23T03:46:31.566Z,12.60
2022-10-23T03:48:59.248Z,12.65
2022-10-23T03:51:27.011Z,12.74
2022-10-23T03:53:54.163Z,12.84
2022-10-23T03:56:21.784Z,12.88
2022-10-23T03:58:48.763Z,12.58
2022-10-23T04:01:15.867Z,12.73
2022-10-23T04:03:42.873Z,12.66
2022-10-23T04:06:09.907Z,12.66
2022-10-23T04:08:37.684Z,12.70
2022-10-23T04:11:11.074Z,12.54
2022-10-23T04:13:47.047Z,12.48
2022-10-23T04:16:14.160Z,12.61
2022-10-23T04:18:42.233Z,12.68
2022-10-23T04:21:11.157Z,12.47
2022-10-23T04:23:39.041Z,12.31
2022-10-23T04:26:11.738Z,12.56
2022-10-23T04:28:38.830Z,12.39
2022-10-23T04:31:06.196Z,12.30
2022-10-23T04:33:33.758Z,12.37
2022-10-23T04:36:00.775Z,12.32
2022-10-23T04:38:27.695Z,12.35
2022-10-23T04:40:54.627Z,12.54
2022-10-23T04:43:22.652Z,12.56
2022-10-23T04:45:50.546Z,12.55
2022-10-23T04:48:17.900Z,12.48
2022-10-23T04:51:14.361Z,12.48
2022-10-23T04:54:05.037Z,12.63
2022-10-23T04:56:49.977Z,12.61
2022-10-23T04:59:19.860Z,12.62
2022-10-23T05:01:47.281Z,12.84
2022-10-23T05:04:14.734Z,12.67
2022-10-23T05:07:02.127Z,12.70
2022-10-23T05:09:47.402Z,12.69
2022-10-23T05:12:26.881Z,12.68
2022-10-23T05:14:54.380Z,12.64
2022-10-23T05:17:26.571Z,12.73
2022-10-23T05:19:55.582Z,12.60
2022-10-23T05:22:27.300Z,12.67
2022-10-23T05:24:55.029Z,12.71
2022-10-23T05:27:25.169Z,12.63
2022-10-23T05:29:54.280Z,12.64
2022-10-23T05:32:27.941Z,12.63
2022-10-23T05:34:55.423Z,12.79
2022-10-23T05:37:26.218Z,12.75
2022-10-23T05:40:02.760Z,12.71
2022-10-23T05:42:29.845Z,12.45
2022-10-23T05:44:57.838Z,12.52
2022-10-23T05:47:56.536Z,12.36
2022-10-23T05:51:11.307Z,12.39
2022-10-23T05:53:46.597Z,12.45
2022-10-23T05:56:30.781Z,12.58
2022-10-23T05:59:04.145Z,12.50
2022-10-23T06:01:46.169Z,12.55
2022-10-23T06:04:17.719Z,12.58
2022-10-23T06:07:04.989Z,12.42
2022-10-23T06:09:32.646Z,12.48
2022-10-23T06:12:01.086Z,12.44
2022-10-23T06:14:28.055Z,12.29
2022-10-23T06:16:55.041Z,12.58
2022-10-23T06:19:23.720Z,12.46
2022-10-23T06:21:54.548Z,12.61
2022-10-23T06:24:28.897Z,12.65
2022-10-23T06:27:01.248Z,12.63
2022-10-23T06:29:41.766Z,12.67
2022-10-23T06:32:08.896Z,12.78
2022-10-23T06:34:36.752Z,12.95
2022-10-23T06:37:04.535Z,12.96
2022-10-23T06:39:44.770Z,13.00
2022-10-23T06:42:36.088Z,13.03
2022-10-23T06:45:26.279Z,12.96
2022-10-23T06:47:53.432Z,13.03
2022-10-23T06:50:41.303Z,13.09
2022-10-23T06:53:13.064Z,13.27
2022-10-23T06:55:48.072Z,13.19
2022-10-23T06:58:17.298Z,13.13
2022-10-23T07:01:02.243Z,13.18
2022-10-23T07:03:29.569Z,13.25
2022-10-23T07:05:56.559Z,13.44
2022-10-23T07:08:24.123Z,13.42
2022-10-23T07:10:53.405Z,13.40
2022-10-23T07:13:20.345Z,13.38
2022-10-23T07:16:11.295Z,13.47
2022-10-23T07:18:38.400Z,13.18
2022-10-23T07:21:24.134Z,13.21
2022-10-23T07:23:54.886Z,13.52
2022-10-23T07:26:22.014Z,13.44
2022-10-23T07:28:51.756Z,13.58
2022-10-23T07:31:25.711Z,13.70
2022-10-23T07:34:13.468Z,13.75
2022-10-23T07:36:41.618Z,13.79
2022-10-23T07:39:09.490Z,13.79
2022-10-23T07:41:43.329Z,13.99
2022-10-23T07:44:10.385Z,13.84
2022-10-23T07:46:37.385Z,13.95
2022-10-23T07:49:04.372Z,13.93
2022-10-23T07:51:31.520Z,13.89
2022-10-23T07:54:00.154Z,14.08
2022-10-23T07:56:56.240Z,14.39
2022-10-23T07:59:41.685Z,14.52
2022-10-23T08:02:15.511Z,14.56
2022-10-23T08:04:43.482Z,14.66
2022-10-23T08:07:21.033Z,14.67
2022-10-23T08:09:49.733Z,14.53
2022-10-23T08:12:16.700Z,14.57
2022-10-23T08:14:43.793Z,14.56
2022-10-23T08:17:11.749Z,14.84
2022-10-23T08:19:57.122Z,14.82
2022-10-23T08:22:27.451Z,14.92
2022-10-23T08:24:54.883Z,14.94
2022-10-23T08:27:22.096Z,15.15
2022-10-23T08:29:49.764Z,15.00
2022-10-23T08:32:16.835Z,15.12
2022-10-23T08:35:00.216Z,15.28
2022-10-23T08:37:30.412Z,15.44
2022-10-23T08:39:58.121Z,15.52
2022-10-23T08:42:48.793Z,15.63
2022-10-23T08:45:38.968Z,15.57
2022-10-23T08:48:28.029Z,15.82
2022-10-23T08:51:40.729Z,15.71
2022-10-23T08:54:22.646Z,15.77
2022-10-23T08:56:59.722Z,15.80
2022-10-23T08:59:40.423Z,15.71
2022-10-23T09:02:27.495Z,15.93
2022-10-23T09:04:57.572Z,15.83
2022-10-23T09:07:50.205Z,15.75
2022-10-23T09:10:23.100Z,16.07
2022-10-23T09:12:50.178Z,15.97
2022-10-23T09:15:47.698Z,16.02
2022-10-23T09:18:16.843Z,15.98
2022-10-23T09:20:46.195Z,16.08
2022-10-23T09:23:13.048Z,16.14
2022-10-23T09:25:42.026Z,16.24
2022-10-23T09:28:22.615Z,16.49
2022-10-23T09:30:50.658Z,16.68
2022-10-23T09:33:23.608Z,16.69
2022-10-23T09:35:59.559Z,16.71
2022-10-23T09:38:47.764Z,16.86
2022-10-23T09:41:22.792Z,17.15
2022-10-23T09:44:08.079Z,17.24
2022-10-23T09:46:45.437Z,17.26
2022-10-23T09:49:23.554Z,17.41
2022-10-23T09:51:55.629Z,17.21
2022-10-23T09:54:24.380Z,17.05
2022-10-23T09:56:54.930Z,17.12
2022-10-23T09:59:27.687Z,17.15
2022-10-23T10:02:00.069Z,17.02
2022-10-23T10:04:53.638Z,16.99
2022-10-23T10:07:24.714Z,16.97
2022-10-23T10:09:53.771Z,16.71
2022-10-23T10:12:37.755Z,16.75
2022-10-23T10:15:18.065Z,16.67
2022-10-23T10:17:57.075Z,16.82
2022-10-23T10:20:45.685Z,16.64
2022-10-23T10:23:27.422Z,16.83
2022-10-23T10:26:20.197Z,17.04
2022-10-23T10:28:50.449Z,17.14
2022-10-23T10:31:26.281Z,17.26
2022-10-23T10:34:14.499Z,17.35
2022-10-23T10:36:50.738Z,17.30
2022-10-23T10:39:44.738Z,17.20
2022-10-23T10:42:35.669Z,17.17
2022-10-23T10:45:14.881Z,17.11
2022-10-23T10:48:03.087Z,17.13
2022-10-23T10:50:49.848Z,17.27
2022-10-23T10:53:49.234Z,17.16
2022-10-23T10:56:20.084Z,17.22
2022-10-23T10:58:52.993Z,17.21
2022-10-23T11:01:29.077Z,17.18
2022-10-23T11:04:06.875Z,17.50
2022-10-23T11:06:37.489Z,17.50
2022-10-23T11:09:26.735Z,17.73
2022-10-23T11:11:54.316Z,17.16
2022-10-23T11:14:26.940Z,17.25
2022-10-23T11:17:12.258Z,17.34
2022-10-23T11:19:46.918Z,17.29
2022-10-23T11:22:38.523Z,17.17
2022-10-23T11:25:21.144Z,17.18
2022-10-23T11:28:10.297Z,17.34
2022-10-23T11:31:19.522Z,17.19
2022-10-23T11:33:46.603Z,17.36
2022-10-23T11:36:18.639Z,17.48
2022-10-23T11:38:49.711Z,17.62
2022-10-23T11:41:23.810Z,17.93
2022-10-23T11:43:57.368Z,17.96
2022-10-23T11:46:27.131Z,18.05
2022-10-23T11:48:55.570Z,18.37
2022-10-23T11:51:31.735Z,18.54
2022-10-23T11:54:13.928Z,19.34
2022-10-23T11:56:55.334Z,20.21
2022-10-23T11:59:37.266Z,20.40
2022-10-23T12:02:18.643Z,21.19
2022-10-23T12:04:52.724Z,21.46
2022-10-23T12:07:27.119Z,22.09
2022-10-23T12:09:58.588Z,22.01
2022-10-23T12:12:41.251Z,22.79
2022-10-23T12:15:14.885Z,22.36
2022-10-23T12:17:46.178Z,21.58
2022-10-23T12:20:38.528Z,21.13
2022-10-23T12:23:21.145Z,21.05
2022-10-23T12:26:13.133Z,20.62
2022-10-23T12:28:55.162Z,20.72
2022-10-23T12:31:28.772Z,20.61
2022-10-23T12:34:29.833Z,20.60
2022-10-23T12:37:19.717Z,20.42
2022-10-23T12:39:52.967Z,20.01
2022-10-23T12:42:27.139Z,19.90
2022-10-23T12:45:02.468Z,19.56
2022-10-23T12:47:31.051Z,19.63
2022-10-23T12:49:58.040Z,19.64
2022-10-23T12:52:25.952Z,19.52
2022-10-23T12:54:53.082Z,19.46
2022-10-23T12:57:26.648Z,19.36
2022-10-23T12:59:58.853Z,19.29
2022-10-23T13:02:31.426Z,19.00
2022-10-23T13:05:01.362Z,18.91
2022-10-23T13:07:32.275Z,19.05
2022-10-23T13:10:02.889Z,18.99
2022-10-23T13:12:35.511Z,19.10
2022-10-23T13:15:08.577Z,19.17
2022-10-23T13:17:38.443Z,19.05
2022-10-23T13:20:11.607Z,19.16
2022-10-23T13:22:41.049Z,19.40
2022-10-23T13:25:21.521Z,19.70
2022-10-23T13:27:49.020Z,19.62
2022-10-23T13:30:35.222Z,19.72
2022-10-23T13:33:02.651Z,20.03
2022-10-23T13:35:29.971Z,20.13
2022-10-23T13:38:08.494Z,19.67
2022-10-23T13:40:36.073Z,19.47
2022-10-23T13:43:03.357Z,19.66
2022-10-23T13:45:30.703Z,19.31
2022-10-23T13:47:57.726Z,19.90
2022-10-23T13:50:25.078Z,20.52
2022-10-23T13:52:53.291Z,21.44
2022-10-23T13:55:24.259Z,21.91
2022-10-23T13:57:51.656Z,22.71
2022-10-23T14:00:19.146Z,22.95
2022-10-23T14:02:46.319Z,23.40
2022-10-23T14:05:13.371Z,23.74
2022-10-23T14:07:41.262Z,23.18
2022-10-23T14:10:08.891Z,22.38
2022-10-23T14:12:43.528Z,22.26
2022-10-23T14:15:11.793Z,22.67
2022-10-23T14:17:38.785Z,22.92
2022-10-23T14:20:06.891Z,22.76
2022-10-23T14:22:34.015Z,22.67
2022-10-23T14:25:01.120Z,22.42
2022-10-23T14:27:29.647Z,22.32
2022-10-23T14:29:56.825Z,22.01
2022-10-23T14:32:24.192Z,21.46
2022-10-23T14:34:54.210Z,21.53
2022-10-23T14:37:22.070Z,20.99
2022-10-23T14:39:50.352Z,20.74
2022-10-23T14:42:18.694Z,20.34
2022-10-23T14:44:45.828Z,19.97
2022-10-23T14:47:13.165Z,19.92
2022-10-23T14:49:40.876Z,19.74
2022-10-23T14:52:08.493Z,19.76
2022-10-23T14:54:36.676Z,19.43
2022-10-23T14:57:04.637Z,19.39
2022-10-23T14:59:31.769Z,19.21
2022-10-23T15:01:59.015Z,19.29
2022-10-23T15:04:26.342Z,19.31
2022-10-23T15:06:53.732Z,19.15
2022-10-23T15:09:21.006Z,19.12
2022-10-23T15:11:48.562Z,19.17
2022-10-23T15:14:16.372Z,19.07
2022-10-23T15:16:43.452Z,18.80
2022-10-23T15:19:17.065Z,18.67
2022-10-23T15:21:47.619Z,18.49
2022-10-23T15:24:16.427Z,18.52
2022-10-23T15:26:44.872Z,18.43
2022-10-23T15:29:12.685Z,18.35
2022-10-23T15:31:43.886Z,18.28
2022-10-23T15:34:14.529Z,18.14
2022-10-23T15:36:42.882Z,18.07
2022-10-23T15:39:11.338Z,18.04
2022-10-23T15:41:40.061Z,17.91
2022-10-23T15:44:09.898Z,17.74
2022-10-23T15:46:37.050Z,17.57
2022-10-23T15:49:04.595Z,17.52
2022-10-23T15:51:31.801Z,17.51
2022-10-23T15:53:59.401Z,17.32
2022-10-23T15:56:26.565Z,17.19
2022-10-23T15:58:53.681Z,17.23
2022-10-23T16:01:21.031Z,17.06
2022-10-23T16:03:51.459Z,17.02
2022-10-23T16:06:21.167Z,17.04
2022-10-23T16:08:48.491Z,16.86
2022-10-23T16:11:28.131Z,16.81
2022-10-23T16:13:56.767Z,16.73
2022-10-23T16:16:24.801Z,16.61
2022-10-23T16:18:52.140Z,16.58
2022-10-23T16:21:25.119Z,16.59
2022-10-23T16:23:54.167Z,16.46
2022-10-23T16:26:21.620Z,16.58
2022-10-23T16:28:53.102Z,16.25
2022-10-23T16:31:21.689Z,16.31
2022-10-23T16:33:49.945Z,16.25
2022-10-23T16:36:17.374Z,16.26
2022-10-23T16:39:21.048Z,16.45
2022-10-23T16:42:07.103Z,16.31
2022-10-23T16:44:59.025Z,16.29
2022-10-23T16:47:26.777Z,16.17
2022-10-23T16:49:54.370Z,16.28
2022-10-23T16:52:21.548Z,16.13
2022-10-23T16:54:49.067Z,16.14
2022-10-23T16:57:16.801Z,16.06
2022-10-23T16:59:44.138Z,15.97
2022-10-23T17:02:13.128Z,15.94
2022-10-23T17:04:40.979Z,16.05
2022-10-23T17:07:08.601Z,15.83
2022-10-23T17:09:35.999Z,15.95
2022-10-23T17:12:03.253Z,15.85
2022-10-23T17:14:31.081Z,15.84
2022-10-23T17:17:08.363Z,15.97
2022-10-23T17:19:46.451Z,15.87
2022-10-23T17:22:15.301Z,15.93
2022-10-23T17:24:46.330Z,15.82
2022-10-23T17:27:17.017Z,15.69
2022-10-23T17:29:44.971Z,15.60
2022-10-23T17:32:12.379Z,15.63
2022-10-23T17:34:40.071Z,15.62
2022-10-23T17:37:08.732Z,15.59
2022-10-23T17:39:36.558Z,15.72
2022-10-23T17:42:07.377Z,15.60
2022-10-23T17:44:36.710Z,15.51
2022-10-23T17:47:04.379Z,15.53
2022-10-23T17:49:31.902Z,15.50
2022-10-23T17:52:02.705Z,15.48
2022-10-23T17:54:30.073Z,15.34
2022-10-23T17:57:02.262Z,15.51
2022-10-23T17:59:30.172Z,15.47
2022-10-23T18:01:59.056Z,15.43
2022-10-23T18:04:26.734Z,15.40
2022-10-23T18:06:54.545Z,15.39
2022-10-23T18:09:23.065Z,15.31
2022-10-23T18:11:51.123Z,15.32
2022-10-23T18:14:21.300Z,15.26
2022-10-23T18:16:49.917Z,15.38
2022-10-23T18:19:19.071Z,15.36
2022-10-23T18:21:48.553Z,15.30
2022-10-23T18:24:17.087Z,15.31
2022-10-23T18:26:46.380Z,15.31
2022-10-23T18:29:15.163Z,15.36
2022-10-23T18:31:43.516Z,15.39
2022-10-23T18:34:21.219Z,15.36
2022-10-23T18:36:51.505Z,15.32
2022-10-23T18:39:23.971Z,15.31
2022-10-23T18:41:55.359Z,15.29
2022-10-23T18:44:25.006Z,15.30
2022-10-23T18:46:54.424Z,15.23
2022-10-23T18:49:22.612Z,15.18
2022-10-23T18:51:50.692Z,15.12
2022-10-23T18:54:20.587Z,15.26
2022-10-23T18:56:52.047Z,15.27
2022-10-23T18:59:24.545Z,15.25
2022-10-23T19:01:53.071Z,15.37
2022-10-23T19:04:21.780Z,15.36
2022-10-23T19:06:51.134Z,15.39
2022-10-23T19:09:19.222Z,15.39
2022-10-23T19:11:47.665Z,15.48
2022-10-23T19:14:17.417Z,15.52
2022-10-23T19:16:50.752Z,15.51
2022-10-23T19:19:46.310Z,15.50
2022-10-23T19:22:15.812Z,15.65
2022-10-23T19:24:50.788Z,15.60
2022-10-23T19:27:20.155Z,15.74
2022-10-23T19:29:53.523Z,15.76
2022-10-23T19:32:23.056Z,15.82
2022-10-23T19:34:50.166Z,15.96
2022-10-23T19:37:17.722Z,16.03
2022-10-23T19:39:45.368Z,16.12
2022-10-23T19:42:13.314Z,16.26
2022-10-23T19:44:41.033Z,16.44
2022-10-23T19:47:09.103Z,16.39
2022-10-23T19:49:37.156Z,16.45
2022-10-23T19:52:05.168Z,16.45
2022-10-23T19:54:34.187Z,16.54
2022-10-23T19:57:03.126Z,16.67
2022-10-23T19:59:30.860Z,16.69
2022-10-23T20:01:58.457Z,16.60
2022-10-23T20:04:26.563Z,16.70
2022-10-23T20:06:54.255Z,16.77
2022-10-23T20:09:22.545Z,16.89
2022-10-23T20:11:49.887Z,16.92
2022-10-23T20:14:18.824Z,16.87
2022-10-23T20:16:50.046Z,16.92
2022-10-23T20:19:20.205Z,16.84
